Time;durP1;ratioP1;P1;durP2;ratioP2;P2;SDS_P1;SDS_P2;PMS_P1;PMS_P2;Temp;Humidity;BMP_temperature;BMP_pressure;BME280_temperature;BME280_humidity;BME280_pressure;Samples;Min_cycle;Max_cycle;Signal;HPM_P1;HPM_P2
2021/04/30 00:01:04;;;;;;;13.05;8.70;;;;;;;7.05;67.35;99867.53;4985327;28;20030;-76
2021/04/30 00:03:30;;;;;;;11.93;8.45;;;;;;;6.94;67.33;99863.22;4982945;28;20129;-76
2021/04/30 00:05:55;;;;;;;10.50;7.90;;;;;;;6.87;67.86;99869.34;4983605;28;20133;-76
2021/04/30 00:08:20;;;;;;;11.20;9.02;;;;;;;6.81;67.87;99871.97;4985281;28;20042;-76
2021/04/30 00:10:46;;;;;;;12.32;9.18;;;;;;;6.76;67.63;99874.63;4983447;28;20035;-76
2021/04/30 00:13:12;;;;;;;12.00;9.05;;;;;;;6.71;67.49;99868.50;4982888;28;20042;-76
2021/04/30 00:15:37;;;;;;;15.68;10.10;;;;;;;6.69;67.34;99861.50;4985117;28;20037;-75
2021/04/30 00:18:06;;;;;;;11.18;9.70;;;;;;;6.66;67.66;99861.53;4983757;28;20039;-76
2021/04/30 00:20:32;;;;;;;11.85;10.50;;;;;;;6.61;68.03;99864.13;4982575;28;20023;-75
2021/04/30 00:22:58;;;;;;;12.05;9.35;;;;;;;6.49;68.05;99865.00;4984028;28;20037;-76
2021/04/30 00:25:23;;;;;;;13.05;10.32;;;;;;;6.44;68.47;99868.50;4984517;28;20482;-76
2021/04/30 00:27:49;;;;;;;11.30;9.25;;;;;;;6.38;68.78;99865.88;4997608;28;20046;-76
2021/04/30 00:30:15;;;;;;;11.80;9.70;;;;;;;6.33;68.32;99872.00;5004207;28;20113;-76
2021/04/30 00:32:40;;;;;;;12.13;9.25;;;;;;;6.34;68.48;99873.75;4984238;28;20034;-76
2021/04/30 00:35:06;;;;;;;11.50;9.57;;;;;;;6.39;67.76;99870.25;4985855;28;20067;-75
2021/04/30 00:37:31;;;;;;;12.25;9.07;;;;;;;6.42;68.01;99875.47;4983436;28;20034;-75
2021/04/30 00:39:57;;;;;;;11.77;9.68;;;;;;;6.39;67.85;99886.84;4999682;28;20512;-76
2021/04/30 00:42:22;;;;;;;12.43;9.80;;;;;;;6.34;68.28;99896.44;4982270;28;20081;-76
2021/04/30 00:44:48;;;;;;;12.82;9.75;;;;;;;6.30;68.43;99889.47;4983035;28;20034;-76
2021/04/30 00:47:29;;;;;;;13.15;10.40;;;;;;;6.23;69.15;99892.94;4984451;28;20045;-76
2021/04/30 00:49:55;;;;;;;11.73;9.70;;;;;;;6.14;69.09;99892.06;4984424;28;20491;-76
2021/04/30 00:52:20;;;;;;;12.57;10.65;;;;;;;6.06;68.86;99903.41;4981643;28;20039;-76
2021/04/30 00:54:46;;;;;;;16.58;10.82;;;;;;;6.01;68.96;99911.25;4982963;28;20042;-76
2021/04/30 00:57:11;;;;;;;16.17;11.02;;;;;;;5.96;69.41;99906.88;4984328;28;20084;-76
2021/04/30 00:59:39;;;;;;;13.65;10.43;;;;;;;5.87;69.90;99915.56;4982694;28;20042;-76
2021/04/30 01:02:04;;;;;;;15.43;11.98;;;;;;;5.80;70.13;99913.78;4983804;28;20407;-76
2021/04/30 01:04:29;;;;;;;16.67;12.40;;;;;;;5.76;70.27;99910.25;4983714;28;20038;-75
2021/04/30 01:06:55;;;;;;;12.20;10.48;;;;;;;5.69;70.74;99919.84;4984362;28;20030;-76
2021/04/30 01:09:20;;;;;;;13.77;11.57;;;;;;;5.65;70.93;99915.47;4984933;28;20042;-76
2021/04/30 01:11:45;;;;;;;13.68;10.85;;;;;;;5.65;71.00;99917.22;4996557;28;20062;-76
2021/04/30 01:14:11;;;;;;;12.35;10.77;;;;;;;5.67;71.72;99918.97;4987716;28;20030;-76
2021/04/30 01:16:36;;;;;;;14.02;11.55;;;;;;;5.68;71.09;99925.94;4985451;28;20172;-76
2021/04/30 01:19:01;;;;;;;12.77;10.55;;;;;;;5.64;71.46;99932.06;4981988;28;20089;-76
2021/04/30 01:21:27;;;;;;;14.68;11.20;;;;;;;5.61;71.49;99928.56;4981917;28;20031;-75
2021/04/30 01:23:53;;;;;;;13.35;10.68;;;;;;;5.57;71.55;99922.41;4983848;28;20039;-76
2021/04/30 01:26:20;;;;;;;12.57;10.25;;;;;;;5.54;71.62;99925.03;4982358;28;20046;-76
2021/04/30 01:28:47;;;;;;;13.50;10.77;;;;;;;5.53;71.73;99925.91;4981554;28;20034;-76
2021/04/30 01:31:13;;;;;;;13.80;10.27;;;;;;;5.49;71.92;99940.69;4980052;28;20120;-76
2021/04/30 01:33:39;;;;;;;12.32;11.02;;;;;;;5.46;72.33;99945.94;4981918;28;20050;-75
2021/04/30 01:36:05;;;;;;;15.48;11.88;;;;;;;5.41;72.28;99937.16;4983611;28;20037;-76
2021/04/30 01:38:30;;;;;;;13.77;11.55;;;;;;;5.39;72.26;99943.25;4982036;28;20403;-76
2021/04/30 01:40:56;;;;;;;13.13;10.48;;;;;;;5.38;71.88;99934.53;4988652;28;20026;-76
2021/04/30 01:43:24;;;;;;;14.43;11.77;;;;;;;5.43;71.83;99935.44;4986562;28;20034;-75
2021/04/30 01:45:53;;;;;;;13.52;10.85;;;;;;;5.39;72.00;99948.50;4980854;28;20038;-76
2021/04/30 01:48:23;;;;;;;13.85;10.63;;;;;;;5.32;72.45;99950.22;4987212;28;20038;-76
2021/04/30 01:50:49;;;;;;;16.02;11.60;;;;;;;5.31;72.33;99945.84;4981877;28;20133;-76
2021/04/30 01:53:27;;;;;;;15.05;11.57;;;;;;;5.31;72.26;99940.59;4998188;28;20042;-76
2021/04/30 01:55:53;;;;;;;14.90;12.00;;;;;;;5.33;72.30;99951.09;4983301;28;20405;-76
2021/04/30 01:58:19;;;;;;;15.15;12.07;;;;;;;5.35;72.34;99951.97;4980854;28;20038;-76
2021/04/30 02:00:45;;;;;;;12.65;10.77;;;;;;;5.33;72.14;99953.72;4981993;28;20058;-76
2021/04/30 02:03:11;;;;;;;15.30;12.43;;;;;;;5.32;72.47;99955.44;4982386;28;20057;-76
2021/04/30 02:05:37;;;;;;;16.55;11.75;;;;;;;5.35;72.31;99958.09;4981181;28;20046;-76
2021/04/30 02:08:06;;;;;;;14.30;11.82;;;;;;;5.34;72.16;99960.69;4996401;28;20042;-75
2021/04/30 02:10:32;;;;;;;15.18;12.23;;;;;;;5.28;72.16;99951.91;4980862;28;20034;-76
2021/04/30 02:12:58;;;;;;;17.40;13.35;;;;;;;5.32;72.33;99957.16;4981513;28;20192;-76
2021/04/30 02:15:26;;;;;;;20.08;13.52;;;;;;;5.36;72.58;99949.34;4998247;28;20125;-76
2021/04/30 02:17:51;;;;;;;16.23;13.45;;;;;;;5.30;72.73;99957.19;4981686;28;20027;-76
2021/04/30 02:20:19;;;;;;;17.63;14.68;;;;;;;5.31;72.36;99958.06;4981248;28;20411;-76
2021/04/30 02:22:44;;;;;;;16.90;13.30;;;;;;;5.28;72.67;99967.63;4980615;28;20034;-76
2021/04/30 02:25:11;;;;;;;15.23;12.75;;;;;;;5.33;72.32;99972.03;4996804;28;20053;-76
2021/04/30 02:27:37;;;;;;;17.98;13.95;;;;;;;5.32;72.27;99967.63;4983029;28;20410;-76
2021/04/30 02:30:05;;;;;;;15.23;12.32;;;;;;;5.33;71.72;99961.56;4981319;28;20035;-75
2021/04/30 02:32:30;;;;;;;14.82;12.77;;;;;;;5.37;72.21;99964.22;4980271;28;20036;-76
2021/04/30 02:34:56;;;;;;;16.15;12.05;;;;;;;5.48;71.50;99969.50;4988870;28;20084;-75
2021/04/30 02:37:24;;;;;;;17.17;12.85;;;;;;;5.52;72.05;99970.38;5000803;28;20047;-76
2021/04/30 02:39:50;;;;;;;15.55;12.25;;;;;;;5.68;71.10;99967.84;4983179;28;20045;-78
2021/04/30 02:42:15;;;;;;;18.60;14.23;;;;;;;5.81;71.49;99971.38;4984504;28;20117;-78
2021/04/30 02:44:40;;;;;;;19.38;15.10;;;;;;;5.98;71.00;99970.63;4983245;28;20042;-75
2021/04/30 02:47:06;;;;;;;14.43;12.80;;;;;;;6.12;70.35;99969.78;4980518;28;20085;-76
2021/04/30 02:49:46;;;;;;;16.20;13.05;;;;;;;6.24;70.45;99973.34;4982094;28;20034;-76
2021/04/30 02:52:15;;;;;;;15.68;13.50;;;;;;;6.33;69.90;99968.09;4995684;28;20038;-76
2021/04/30 02:54:41;;;;;;;13.43;11.35;;;;;;;6.35;69.29;99971.59;4986005;28;20030;-75
2021/04/30 02:57:07;;;;;;;14.70;11.98;;;;;;;6.41;69.60;99971.59;4981821;28;20398;-76
2021/04/30 02:59:33;;;;;;;14.40;12.50;;;;;;;6.50;69.55;99976.00;4981217;28;20125;-76
2021/04/30 03:01:58;;;;;;;14.80;12.27;;;;;;;6.55;68.63;99975.13;4982314;28;20136;-75
2021/04/30 03:04:24;;;;;;;14.35;12.02;;;;;;;6.61;68.61;99969.00;4980897;28;20454;-76
2021/04/30 03:06:49;;;;;;;16.65;12.32;;;;;;;6.59;68.59;99963.75;4996020;28;20069;-76
2021/04/30 03:09:15;;;;;;;15.20;12.07;;;;;;;6.54;68.31;99972.50;4982541;28;20509;-76
2021/04/30 03:11:41;;;;;;;17.98;12.40;;;;;;;6.57;68.46;99975.97;4980845;28;20037;-76
2021/04/30 03:14:07;;;;;;;15.38;12.43;;;;;;;6.65;68.40;99990.84;4980462;28;20034;-76
2021/04/30 03:16:32;;;;;;;14.65;12.02;;;;;;;6.60;68.59;99996.09;4985581;28;20494;-76
2021/04/30 03:18:57;;;;;;;16.33;13.13;;;;;;;6.52;68.92;99985.63;4985008;28;20077;-76
2021/04/30 03:21:23;;;;;;;14.38;11.65;;;;;;;6.49;68.54;99990.84;4998323;28;20035;-77
2021/04/30 03:23:48;;;;;;;16.35;13.30;;;;;;;6.44;68.93;99995.19;5000921;28;20046;-76
2021/04/30 03:26:14;;;;;;;14.70;13.10;;;;;;;6.53;68.92;99992.59;4985136;28;20035;-76
2021/04/30 03:28:39;;;;;;;12.95;11.20;;;;;;;6.61;68.13;99994.38;4998492;28;20043;-76
2021/04/30 03:31:05;;;;;;;14.32;11.43;;;;;;;6.72;68.46;99987.38;4989204;28;20092;-76
2021/04/30 03:33:30;;;;;;;14.27;11.65;;;;;;;6.78;67.22;99997.88;4984873;28;20125;-76
2021/04/30 03:35:55;;;;;;;16.27;11.70;;;;;;;6.85;66.79;100002.25;4983446;28;20113;-76
2021/04/30 03:38:21;;;;;;;14.88;10.90;;;;;;;6.89;66.94;100001.38;4984814;28;20037;-76
2021/04/30 03:40:47;;;;;;;13.90;11.27;;;;;;;6.94;66.52;100004.88;4985537;28;20122;-77
2021/04/30 03:43:17;;;;;;;14.05;10.73;;;;;;;6.96;65.58;100008.38;4982895;28;20038;-76
2021/04/30 03:45:43;;;;;;;14.30;11.32;;;;;;;7.03;66.18;100006.63;4988539;28;20038;-77
2021/04/30 03:48:08;;;;;;;13.73;11.10;;;;;;;6.91;65.74;100009.25;4985435;28;20065;-76
2021/04/30 03:50:34;;;;;;;14.40;11.75;;;;;;;6.91;65.93;100002.25;4984812;28;20124;-76
2021/04/30 03:52:59;;;;;;;14.18;11.32;;;;;;;6.88;66.21;100010.13;4984976;28;20034;-76
2021/04/30 03:55:25;;;;;;;15.82;11.88;;;;;;;6.84;66.05;100013.63;4984206;28;20042;-74
2021/04/30 03:57:50;;;;;;;14.27;11.50;;;;;;;6.82;66.31;100020.63;4984432;28;20049;-76
2021/04/30 04:00:16;;;;;;;12.88;11.35;;;;;;;6.82;66.18;100020.63;4985404;28;20048;-76
2021/04/30 04:02:41;;;;;;;13.98;11.88;;;;;;;6.87;66.03;100018.00;4983182;28;20062;-76
2021/04/30 04:05:07;;;;;;;16.48;12.55;;;;;;;6.87;66.18;100024.13;4999076;28;20038;-77
2021/04/30 04:07:32;;;;;;;15.57;11.73;;;;;;;6.80;66.58;100035.47;5000308;28;20038;-77
2021/04/30 04:09:58;;;;;;;14.55;12.23;;;;;;;6.66;66.60;100031.97;4983538;28;20086;-76
2021/04/30 04:12:23;;;;;;;14.48;12.35;;;;;;;6.58;67.14;100026.69;4983065;28;20072;-77
2021/04/30 04:14:49;;;;;;;16.33;12.07;;;;;;;6.45;66.97;100031.03;5019496;23;20082;-73
2021/04/30 04:17:16;;;;;;;17.25;13.18;;;;;;;6.34;67.51;100036.25;5033008;28;20049;-73
2021/04/30 04:19:48;;;;;;;16.17;12.82;;;;;;;6.30;68.05;100041.47;5033072;28;20057;-73
2021/04/30 04:22:14;;;;;;;14.47;12.30;;;;;;;6.30;67.69;100044.97;5032695;28;20048;-73
2021/04/30 04:24:40;;;;;;;13.88;11.73;;;;;;;6.30;67.66;100044.09;5032699;28;20753;-73
2021/04/30 04:27:05;;;;;;;14.27;11.57;;;;;;;6.31;67.76;100044.13;5031781;28;20117;-72
2021/04/30 04:29:30;;;;;;;16.45;11.15;;;;;;;6.38;67.32;100049.38;5028970;28;20112;-73
2021/04/30 04:31:56;;;;;;;15.98;13.13;;;;;;;6.46;67.52;100052.88;5032357;28;20383;-73
2021/04/30 04:34:24;;;;;;;16.35;13.05;;;;;;;6.57;68.08;100057.25;5032666;28;20527;-73
2021/04/30 04:36:49;;;;;;;15.98;12.13;;;;;;;6.67;67.11;100054.69;5032772;28;20034;-73
2021/04/30 04:39:15;;;;;;;15.00;12.35;;;;;;;6.77;66.75;100064.31;5032517;28;20052;-73
2021/04/30 04:41:40;;;;;;;15.43;11.73;;;;;;;6.93;66.53;100060.84;5032093;28;20393;-72
2021/04/30 04:44:05;;;;;;;15.32;13.25;;;;;;;6.99;66.78;100059.97;5032420;28;20431;-73
2021/04/30 04:46:31;;;;;;;19.30;13.40;;;;;;;7.10;65.92;100065.22;5032348;28;20497;-72
2021/04/30 04:48:56;;;;;;;14.73;11.93;;;;;;;7.17;65.93;100065.22;5032349;28;20025;-72
2021/04/30 04:51:21;;;;;;;14.82;12.25;;;;;;;7.27;65.33;100073.97;5031825;28;20037;-73
2021/04/30 04:53:47;;;;;;;15.32;12.18;;;;;;;7.37;65.82;100075.72;5032268;28;20520;-73
2021/04/30 04:56:12;;;;;;;16.08;11.23;;;;;;;7.44;64.85;100081.84;5031689;28;20041;-73
2021/04/30 04:58:37;;;;;;;15.63;12.43;;;;;;;7.37;64.97;100080.13;5031841;28;20040;-73
2021/04/30 05:01:05;;;;;;;15.82;11.95;;;;;;;7.43;64.75;100083.59;5032147;28;20026;-73
2021/04/30 05:03:31;;;;;;;13.80;11.45;;;;;;;7.48;64.99;100083.59;5031855;28;20040;-73
2021/04/30 05:05:56;;;;;;;14.38;12.30;;;;;;;7.68;65.12;100091.47;5031969;28;20037;-73
2021/04/30 05:08:22;;;;;;;14.48;10.80;;;;;;;7.73;64.44;100087.09;5031990;28;20041;-74
2021/04/30 05:10:47;;;;;;;15.23;13.15;;;;;;;7.82;64.73;100087.03;5031760;28;20053;-73
2021/04/30 05:13:13;;;;;;;15.55;11.65;;;;;;;7.87;64.00;100098.44;5031575;28;20042;-73
2021/04/30 05:15:38;;;;;;;14.30;12.38;;;;;;;7.92;64.00;100087.91;5031606;28;20041;-73
2021/04/30 05:18:03;;;;;;;14.13;12.45;;;;;;;7.97;63.99;100095.78;5029130;28;20045;-73
2021/04/30 05:20:29;;;;;;;14.25;11.88;;;;;;;7.98;63.46;100100.16;5029629;28;20033;-73
2021/04/30 05:22:54;;;;;;;14.85;11.98;;;;;;;8.03;63.50;100095.75;5027198;28;20040;-73
2021/04/30 05:25:19;;;;;;;14.82;12.15;;;;;;;8.05;63.46;100105.41;5027532;28;20041;-73
2021/04/30 05:27:45;;;;;;;14.82;12.52;;;;;;;8.17;63.80;100096.59;5031603;28;20037;-73
2021/04/30 05:30:12;;;;;;;14.68;12.82;;;;;;;8.27;63.62;100105.31;5031607;28;20036;-73
2021/04/30 05:32:37;;;;;;;14.57;11.88;;;;;;;8.28;63.93;100094.81;5031249;28;20041;-73
2021/04/30 05:35:03;;;;;;;16.35;12.52;;;;;;;8.39;63.23;100100.06;5013775;28;20033;-73
2021/04/30 05:37:32;;;;;;;18.88;12.82;;;;;;;8.47;62.16;100097.41;5031323;28;20509;-73
2021/04/30 05:39:59;;;;;;;15.15;12.43;;;;;;;8.49;62.75;100106.16;5027704;28;20124;-73
2021/04/30 05:42:25;;;;;;;16.83;12.77;;;;;;;8.58;62.40;100111.38;5031187;28;20029;-73
2021/04/30 05:44:52;;;;;;;15.45;12.95;;;;;;;8.51;62.17;100107.91;5031233;28;20640;-73
2021/04/30 05:47:18;;;;;;;16.38;13.73;;;;;;;8.54;62.48;100120.13;5031304;28;20044;-73
2021/04/30 05:49:43;;;;;;;15.68;12.48;;;;;;;8.56;62.34;100114.00;5031339;28;20029;-73
2021/04/30 05:52:08;;;;;;;15.10;12.73;;;;;;;8.62;62.28;100113.13;5030964;28;20052;-73
2021/04/30 05:54:34;;;;;;;15.38;12.63;;;;;;;8.71;61.80;100113.03;5031056;28;20033;-73
2021/04/30 05:56:59;;;;;;;18.02;13.90;;;;;;;8.76;62.40;100119.16;5031217;28;20041;-73
2021/04/30 05:59:24;;;;;;;14.77;12.73;;;;;;;8.89;62.47;100122.59;5031185;28;20128;-73
2021/04/30 06:01:49;;;;;;;16.42;13.50;;;;;;;9.04;61.80;100129.53;5030935;28;20172;-73
2021/04/30 06:04:16;;;;;;;16.67;13.13;;;;;;;9.07;61.27;100129.50;5029794;28;20041;-73
2021/04/30 06:06:41;;;;;;;15.05;13.05;;;;;;;9.11;61.60;100119.81;5031065;28;20044;-73
2021/04/30 06:09:07;;;;;;;16.98;13.45;;;;;;;9.15;61.27;100127.69;5030967;28;20038;-73
2021/04/30 06:11:32;;;;;;;17.73;14.18;;;;;;;9.27;60.48;100134.63;5030765;28;20041;-73
2021/04/30 06:13:57;;;;;;;15.85;12.82;;;;;;;9.29;61.21;100135.50;5030918;28;20036;-73
2021/04/30 06:16:23;;;;;;;18.45;12.98;;;;;;;9.48;61.07;100138.84;5030789;28;20030;-73
2021/04/30 06:18:48;;;;;;;16.55;12.95;;;;;;;9.57;60.00;100132.66;5030979;28;20068;-73
2021/04/30 06:21:13;;;;;;;15.48;13.13;;;;;;;9.53;59.92;100133.56;5030811;28;20408;-73
2021/04/30 06:23:39;;;;;;;19.60;13.13;;;;;;;9.63;59.08;100137.88;5030718;28;20396;-73
2021/04/30 06:26:04;;;;;;;14.23;12.50;;;;;;;9.61;60.72;100153.69;5029438;28;20036;-73
2021/04/30 06:28:29;;;;;;;16.10;13.60;;;;;;;9.47;59.88;100146.78;5030842;28;20037;-73
2021/04/30 06:30:56;;;;;;;15.70;13.65;;;;;;;9.45;60.27;100136.25;5030743;28;20033;-73
2021/04/30 06:33:22;;;;;;;15.35;13.75;;;;;;;9.52;59.66;100145.88;5030617;28;20037;-73
2021/04/30 06:35:48;;;;;;;16.95;13.13;;;;;;;9.57;60.07;100151.09;5030700;28;20041;-73
2021/04/30 06:38:13;;;;;;;16.67;13.60;;;;;;;9.65;59.89;100138.75;5029350;28;20034;-73
2021/04/30 06:40:39;;;;;;;16.40;14.35;;;;;;;9.74;59.85;100157.09;5030726;28;20468;-73
2021/04/30 06:43:04;;;;;;;16.00;13.75;;;;;;;9.71;59.19;100145.72;5029269;28;20087;-73
2021/04/30 06:45:31;;;;;;;16.67;14.05;;;;;;;9.84;59.43;100147.34;5030713;28;20099;-73
2021/04/30 06:47:56;;;;;;;17.23;14.65;;;;;;;9.90;59.06;100157.81;5030719;28;20045;-73
2021/04/30 06:50:22;;;;;;;15.93;13.55;;;;;;;9.83;59.39;100162.28;5026922;28;20609;-73
2021/04/30 06:52:47;;;;;;;16.17;14.43;;;;;;;9.78;59.16;100163.22;5034349;28;20366;-73
2021/04/30 06:55:12;;;;;;;15.75;13.95;;;;;;;9.68;59.76;100185.28;5030529;28;20025;-73
2021/04/30 06:57:38;;;;;;;16.45;13.80;;;;;;;9.88;60.23;100167.53;5030605;28;20052;-73
2021/04/30 07:00:05;;;;;;;17.73;15.05;;;;;;;9.97;58.78;100159.50;5034352;28;20163;-73
2021/04/30 07:02:30;;;;;;;17.88;14.48;;;;;;;10.05;58.03;100172.63;5024605;28;20072;-73
2021/04/30 07:04:57;;;;;;;16.33;14.07;;;;;;;10.13;58.09;100164.66;5034093;28;20477;-73
2021/04/30 07:07:23;;;;;;;19.38;14.15;;;;;;;10.26;58.22;100176.81;5031494;28;20046;-74
2021/04/30 07:09:49;;;;;;;17.42;13.90;;;;;;;10.24;57.24;100174.22;5030194;28;20041;-73
2021/04/30 07:12:14;;;;;;;15.98;13.25;;;;;;;10.25;58.22;100169.81;5033812;28;20036;-74
2021/04/30 07:14:40;;;;;;;16.58;14.05;;;;;;;10.16;57.54;100169.88;5033725;28;20037;-73
2021/04/30 07:17:05;;;;;;;18.58;14.65;;;;;;;10.29;57.63;100167.13;5032855;28;20040;-73
2021/04/30 07:19:30;;;;;;;15.48;13.88;;;;;;;10.25;57.40;100175.94;5032821;28;20124;-73
2021/04/30 07:21:56;;;;;;;16.25;14.13;;;;;;;10.24;57.38;100183.84;5032589;28;20029;-73
2021/04/30 07:24:22;;;;;;;15.35;13.75;;;;;;;10.43;57.24;100182.81;5032581;28;20092;-73
2021/04/30 07:26:47;;;;;;;15.27;13.68;;;;;;;10.54;57.29;100187.97;5032677;28;20052;-73
2021/04/30 07:29:12;;;;;;;18.17;15.23;;;;;;;10.36;60.44;100183.78;5032747;28;20037;-73
2021/04/30 07:31:38;;;;;;;21.98;18.10;;;;;;;10.60;59.15;100197.59;5032223;28;20064;-73
2021/04/30 07:34:03;;;;;;;18.17;15.40;;;;;;;10.71;57.27;100200.97;5031386;28;20493;-73
2021/04/30 07:36:28;;;;;;;16.48;13.60;;;;;;;10.62;57.49;100196.66;5031652;28;20470;-73
2021/04/30 07:38:54;;;;;;;30.23;21.08;;;;;;;10.56;58.66;100199.41;5032290;28;20053;-73
2021/04/30 07:41:19;;;;;;;18.92;15.48;;;;;;;10.61;57.83;100200.22;5031995;28;20516;-74
2021/04/30 07:43:45;;;;;;;16.60;14.60;;;;;;;10.62;56.98;100206.38;5032372;28;20059;-73
2021/04/30 07:46:10;;;;;;;18.05;14.82;;;;;;;10.59;58.18;100216.97;5032053;28;20065;-73
2021/04/30 07:48:36;;;;;;;16.30;14.20;;;;;;;10.45;58.17;100217.97;5032315;28;20490;-74
2021/04/30 07:51:02;;;;;;;16.67;14.90;;;;;;;10.41;58.24;100215.38;5032166;28;20033;-73
2021/04/30 07:53:29;;;;;;;15.68;14.15;;;;;;;10.46;57.50;100222.34;5031924;28;20095;-74
2021/04/30 07:55:54;;;;;;;17.63;14.55;;;;;;;10.45;58.23;100225.00;5032241;28;20033;-74
2021/04/30 07:58:20;;;;;;;17.52;14.63;;;;;;;10.23;58.43;100219.03;5029508;28;20335;-73
2021/04/30 08:00:46;;;;;;;17.17;14.52;;;;;;;10.36;58.17;100220.69;5029402;28;20032;-73
2021/04/30 08:03:11;;;;;;;16.15;14.45;;;;;;;10.25;59.06;100230.47;5026481;28;20045;-73
2021/04/30 08:05:36;;;;;;;18.35;14.88;;;;;;;10.18;58.66;100231.41;5028605;28;20044;-74
2021/04/30 08:08:04;;;;;;;18.27;14.73;;;;;;;10.36;58.71;100230.38;5030134;28;20497;-73
2021/04/30 08:10:31;;;;;;;17.80;15.30;;;;;;;10.52;58.59;100231.97;5031910;28;20037;-73
2021/04/30 08:12:56;;;;;;;17.10;13.85;;;;;;;10.79;57.48;100230.78;5031316;28;20026;-73
2021/04/30 08:15:22;;;;;;;16.77;14.48;;;;;;;10.99;57.97;100233.19;5011391;28;495643;-74
2021/04/30 08:17:47;;;;;;;18.55;14.80;;;;;;;11.18;56.56;100231.16;5031151;28;20086;-73
2021/04/30 08:20:13;;;;;;;17.90;15.27;;;;;;;11.36;55.67;100233.56;5032021;28;20037;-74
2021/04/30 08:22:39;;;;;;;16.88;15.07;;;;;;;11.27;56.10;100233.69;5030787;28;20018;-73
2021/04/30 08:25:06;;;;;;;18.73;15.85;;;;;;;11.14;56.79;100233.00;5030224;28;20168;-73
2021/04/30 08:27:32;;;;;;;18.17;15.85;;;;;;;11.29;56.74;100237.19;5032743;28;20037;-74
2021/04/30 08:29:57;;;;;;;17.17;15.02;;;;;;;11.65;55.94;100242.81;5032518;28;20049;-74
2021/04/30 08:32:22;;;;;;;17.42;14.10;;;;;;;11.77;55.94;100245.28;5032450;28;20040;-73
2021/04/30 08:34:48;;;;;;;16.45;14.32;;;;;;;11.73;56.50;100248.88;5032568;28;20041;-73
2021/04/30 08:37:14;;;;;;;19.55;15.35;;;;;;;11.74;56.77;100239.19;5032468;28;20117;-74
2021/04/30 08:39:40;;;;;;;16.77;14.50;;;;;;;11.83;56.76;100239.91;5032532;28;20073;-74
2021/04/30 08:42:05;;;;;;;17.67;14.45;;;;;;;11.65;57.46;100229.63;5032339;28;20040;-73
2021/04/30 08:44:31;;;;;;;15.45;13.25;;;;;;;11.73;55.98;100238.28;5032384;28;20037;-74
2021/04/30 08:46:56;;;;;;;15.02;13.43;;;;;;;11.88;55.23;100241.63;5032364;28;20192;-74
2021/04/30 08:49:21;;;;;;;14.90;13.30;;;;;;;11.78;56.14;100247.03;5031168;28;20045;-74
2021/04/30 08:51:47;;;;;;;14.88;13.25;;;;;;;11.71;56.41;100240.13;5031866;28;20073;-74
2021/04/30 08:54:16;;;;;;;15.63;11.82;;;;;;;11.85;56.22;100240.75;5031030;28;20163;-74
2021/04/30 08:56:48;;;;;;;14.07;11.32;;;;;;;11.78;56.31;100260.25;5032163;28;20037;-74
2021/04/30 08:59:14;;;;;;;12.65;9.48;;;;;;;11.36;58.41;100265.25;5030957;28;20069;-73
2021/04/30 09:01:39;;;;;;;15.82;12.18;;;;;;;11.12;57.91;100258.53;5031753;28;20112;-73
2021/04/30 09:04:06;;;;;;;15.40;13.70;;;;;;;11.20;57.51;100250.53;5032026;28;20044;-74
2021/04/30 09:06:40;;;;;;;12.85;11.48;;;;;;;11.14;57.77;100247.97;5031829;28;20511;-74
2021/04/30 09:09:10;;;;;;;12.50;10.95;;;;;;;11.32;58.01;100249.50;5032026;28;20080;-74
2021/04/30 09:11:45;;;;;;;15.68;11.18;;;;;;;11.26;57.93;100258.34;5030470;28;20033;-73
2021/04/30 09:14:27;;;;;;;13.05;10.60;;;;;;;11.34;58.11;100250.31;5029038;28;20516;-74
2021/04/30 09:17:09;;;;;;;14.93;12.57;;;;;;;11.69;57.25;100252.47;5028405;28;20416;-74
2021/04/30 09:19:50;;;;;;;13.60;12.20;;;;;;;12.05;56.61;100247.50;5031774;28;20280;-74
2021/04/30 09:22:21;;;;;;;16.58;14.88;;;;;;;12.14;57.55;100244.72;5031577;28;20389;-74
2021/04/30 09:24:53;;;;;;;16.55;14.15;;;;;;;12.38;55.55;100254.00;5024641;28;20026;-73
2021/04/30 09:27:40;;;;;;;16.00;14.33;;;;;;;12.09;56.55;100251.00;5031605;28;20809;-74
2021/04/30 09:30:25;;;;;;;16.08;14.05;;;;;;;11.49;57.26;100265.09;5029737;28;20284;-73
2021/04/30 09:33:10;;;;;;;16.13;14.40;;;;;;;11.29;59.35;100262.72;5028887;28;20129;-74
2021/04/30 09:35:43;;;;;;;17.45;14.77;;;;;;;11.30;58.28;100268.00;5028298;28;20043;-74
2021/04/30 09:38:21;;;;;;;16.77;14.65;;;;;;;11.43;59.17;100278.41;5031754;28;20052;-74
2021/04/30 09:40:49;;;;;;;15.88;13.68;;;;;;;11.85;57.70;100275.13;5029126;28;20044;-74
2021/04/30 09:43:15;;;;;;;14.25;12.13;;;;;;;12.17;57.27;100276.41;5031253;28;20037;-74
2021/04/30 09:45:41;;;;;;;13.20;11.45;;;;;;;12.40;57.12;100262.78;5031339;28;20032;-74
2021/04/30 09:48:10;;;;;;;16.63;13.13;;;;;;;12.74;55.84;100266.59;5031602;28;20458;-73
2021/04/30 09:50:36;;;;;;;14.30;12.20;;;;;;;13.13;53.85;100264.94;5031213;28;20045;-74
2021/04/30 09:53:09;;;;;;;16.80;11.90;;;;;;;13.29;54.36;100266.38;5031239;28;20033;-74
2021/04/30 09:55:38;;;;;;;;;;;;;;;12.98;53.14;100271.41;5028170;28;20048;-74
2021/04/30 09:58:14;;;;;;;13.27;10.88;;;;;;;12.81;54.80;100268.19;5031164;28;19959;-74
2021/04/30 10:00:39;;;;;;;14.15;11.88;;;;;;;12.69;55.27;100270.19;5027261;28;20413;-74
2021/04/30 10:03:26;;;;;;;14.45;12.52;;;;;;;12.50;55.82;100274.09;5030318;28;20041;-73
2021/04/30 10:05:59;;;;;;;14.85;12.57;;;;;;;12.25;56.41;100287.72;5028255;28;20114;-73
2021/04/30 10:08:24;;;;;;;14.75;13.20;;;;;;;12.14;56.71;100281.75;5030881;28;20541;-74
2021/04/30 10:10:50;;;;;;;14.43;12.93;;;;;;;12.28;56.36;100286.81;5030854;28;20128;-74
2021/04/30 10:13:15;;;;;;;14.50;12.68;;;;;;;12.34;56.39;100288.47;5030728;28;20124;-73
2021/04/30 10:15:40;;;;;;;14.93;13.02;;;;;;;12.44;56.24;100280.38;5030798;28;20099;-73
2021/04/30 10:18:06;;;;;;;16.83;14.52;;;;;;;12.39;56.80;100283.97;5047606;22;20518;-74
2021/04/30 10:20:32;;;;;;;17.73;15.18;;;;;;;12.48;56.91;100289.13;5036698;28;20049;-75
2021/04/30 10:22:59;;;;;;;16.85;14.05;;;;;;;12.40;56.15;100289.25;5021577;28;20037;-74
2021/04/30 10:25:28;;;;;;;14.95;13.40;;;;;;;12.43;55.97;100280.38;5022209;28;20037;-76
2021/04/30 10:27:55;;;;;;;15.60;12.95;;;;;;;12.60;55.99;100270.38;5023741;28;20033;-73
2021/04/30 10:30:21;;;;;;;13.00;11.45;;;;;;;12.85;55.22;100275.19;5024721;28;20037;-76
2021/04/30 10:33:10;;;;;;;13.48;11.75;;;;;;;12.90;56.13;100275.97;5025154;28;20047;-75
2021/04/30 10:35:49;;;;;;;12.70;11.00;;;;;;;13.11;54.61;100270.25;5026166;28;20041;-74
2021/04/30 10:38:20;;;;;;;12.05;10.55;;;;;;;13.27;55.37;100267.31;5025840;28;20037;-75
2021/04/30 10:41:04;;;;;;;13.32;11.43;;;;;;;13.27;54.05;100275.25;5024443;28;20044;-74
2021/04/30 10:43:30;;;;;;;11.98;10.10;;;;;;;13.49;54.64;100265.94;5039640;28;20430;-76
2021/04/30 10:46:01;;;;;;;12.57;10.98;;;;;;;13.68;54.18;100260.22;5022438;28;20049;-75
2021/04/30 10:48:26;;;;;;;13.93;11.73;;;;;;;14.01;52.72;100261.19;5027812;28;20046;-74
2021/04/30 10:50:52;;;;;;;12.77;11.48;;;;;;;14.06;51.96;100266.38;5023562;28;20029;-75
2021/04/30 10:53:29;;;;;;;10.65;9.48;;;;;;;13.86;51.28;100261.53;5021876;28;20579;-75
2021/04/30 10:55:55;;;;;;;11.25;10.07;;;;;;;13.82;53.08;100255.44;5023564;28;20069;-75
2021/04/30 10:58:30;;;;;;;11.35;9.82;;;;;;;14.03;51.83;100248.75;5025040;28;20146;-75
2021/04/30 11:00:55;;;;;;;10.48;9.30;;;;;;;14.44;51.21;100252.13;5024494;28;20029;-75
2021/04/30 11:03:23;;;;;;;13.48;10.18;;;;;;;14.28;50.06;100254.31;5024920;28;20497;-75
2021/04/30 11:06:00;;;;;;;10.90;9.65;;;;;;;14.22;50.05;100259.75;5021940;28;20038;-75
2021/04/30 11:08:47;;;;;;;10.25;8.95;;;;;;;13.79;50.15;100261.69;5024860;28;20108;-76
2021/04/30 11:11:12;;;;;;;13.05;11.65;;;;;;;13.61;52.25;100266.56;5025366;28;20044;-76
2021/04/30 11:13:38;;;;;;;11.95;10.13;;;;;;;13.71;51.15;100265.44;5022238;28;20039;-75
2021/04/30 11:16:03;;;;;;;12.15;10.60;;;;;;;13.85;51.79;100265.97;5023547;28;20033;-75